Time;durP1;ratioP1;P1;durP2;ratioP2;P2;SDS_P1;SDS_P2;PMS_P1;PMS_P2;Temp;Humidity;BMP_temperature;BMP_pressure;BME280_temperature;BME280_humidity;BME280_pressure;Samples;Min_cycle;Max_cycle;Signal;HPM_P1;HPM_P2
2022/03/22 03:22:33;;;;;;;17.73;12.20;;;4.90;95.90;;;;;;6069419;23;20220;-88
2022/03/22 04:16:56;;;;;;;18.63;10.70;;;4.90;97.50;;;;;;6115825;23;20196;-87
2022/03/22 04:19:25;;;;;;;18.20;11.88;;;4.70;97.70;;;;;;6116691;23;20196;-87
2022/03/22 04:21:58;;;;;;;19.60;11.70;;;4.70;97.80;;;;;;6116295;23;20187;-86
2022/03/22 04:24:25;;;;;;;19.23;11.40;;;4.70;97.80;;;;;;6117287;23;20161;-86
2022/03/22 04:32:41;;;;;;;18.10;11.25;;;4.70;97.90;;;;;;6108981;23;20227;-87
2022/03/22 04:32:44;;;;;;;17.15;12.07;;;4.70;97.70;;;;;;6109647;23;20474;-87
2022/03/22 04:35:13;;;;;;;18.40;11.10;;;4.60;98.00;;;;;;6110103;23;20463;-86
2022/03/22 04:37:45;;;;;;;17.30;11.48;;;4.60;98.20;;;;;;6105311;23;20201;-87
2022/03/22 04:40:14;;;;;;;17.33;11.25;;;4.20;98.30;;;;;;6107384;23;20256;-87
2022/03/22 04:42:44;;;;;;;20.25;12.25;;;4.50;98.50;;;;;;6109463;23;20177;-87
2022/03/22 04:45:15;;;;;;;17.17;11.35;;;4.50;98.90;;;;;;6110122;23;20195;-88
2022/03/22 04:47:52;;;;;;;19.80;12.70;;;4.50;99.30;;;;;;6108819;23;20264;-89
2022/03/22 04:50:20;;;;;;;20.45;12.15;;;4.50;99.50;;;;;;6109662;23;20177;-86
2022/03/22 04:58:20;;;;;;;21.00;12.48;;;4.50;99.60;;;;;;6106064;23;20168;-88
2022/03/22 05:00:50;;;;;;;18.15;12.45;;;4.40;99.60;;;;;;6105522;23;20169;-85
2022/03/22 05:03:20;;;;;;;20.92;14.50;;;4.40;99.80;;;;;;6106075;23;20603;-86
2022/03/22 05:08:35;;;;;;;19.60;12.10;;;4.10;99.70;;;;;;6124740;23;20176;-88
2022/03/22 05:11:06;;;;;;;22.48;14.13;;;4.40;99.50;;;;;;6113537;23;20173;-87
2022/03/22 05:13:33;;;;;;;18.30;11.63;;;4.50;99.60;;;;;;6119753;23;20169;-87
2022/03/22 05:16:01;;;;;;;18.45;11.90;;;4.50;99.70;;;;;;6114267;23;20260;-87
2022/03/22 05:18:30;;;;;;;19.75;11.85;;;4.00;98.80;;;;;;6113630;23;20180;-86
2022/03/22 05:20:59;;;;;;;15.68;10.73;;;4.10;98.90;;;;;;6101003;23;20625;-86
2022/03/22 05:23:26;;;;;;;20.23;12.48;;;4.10;99.00;;;;;;6101679;23;20177;-87
2022/03/22 05:25:53;;;;;;;19.58;13.43;;;4.20;99.10;;;;;;6102018;23;20264;-87
2022/03/22 05:28:20;;;;;;;21.00;12.50;;;4.50;99.40;;;;;;6108766;23;20165;-87
2022/03/22 05:30:55;;;;;;;16.63;11.38;;;4.10;99.30;;;;;;6104993;23;20224;-87
2022/03/22 05:33:32;;;;;;;18.15;11.75;;;4.20;99.80;;;;;;6103568;23;20211;-86
2022/03/22 05:36:01;;;;;;;17.65;11.25;;;4.50;99.80;;;;;;6105363;23;20201;-87
2022/03/22 05:38:28;;;;;;;16.58;11.88;;;4.40;99.60;;;;;;6117673;23;20181;-89
2022/03/22 05:40:56;;;;;;;19.45;12.98;;;4.40;99.70;;;;;;6113553;23;20191;-87
2022/03/22 05:43:29;;;;;;;20.35;12.55;;;4.40;99.90;;;;;;6115698;23;20172;-86
2022/03/22 05:46:00;;;;;;;22.20;13.15;;;4.40;99.90;;;;;;6120777;23;20240;-88
2022/03/22 05:48:30;;;;;;;19.25;12.80;;;4.30;99.90;;;;;;6121370;23;20208;-87
2022/03/22 05:51:02;;;;;;;24.58;12.70;;;3.80;99.90;;;;;;6106943;23;20169;-89
2022/03/22 05:53:32;;;;;;;21.65;13.02;;;4.00;99.90;;;;;;6107612;23;20204;-88
2022/03/22 05:56:00;;;;;;;23.40;13.30;;;3.90;99.90;;;;;;6110265;23;20256;-88
2022/03/22 05:58:27;;;;;;;18.00;12.55;;;4.30;99.90;;;;;;6106459;23;20228;-87
2022/03/22 06:01:01;;;;;;;18.88;12.70;;;4.40;99.90;;;;;;6106816;23;20564;-87
2022/03/22 06:03:37;;;;;;;18.00;12.60;;;4.60;99.90;;;;;;6109944;23;20198;-87
2022/03/22 06:06:07;;;;;;;19.42;12.80;;;4.00;99.70;;;;;;6110339;23;20201;-86
2022/03/22 06:08:34;;;;;;;18.60;12.75;;;4.40;99.90;;;;;;6105169;23;20185;-88
2022/03/22 06:11:04;;;;;;;21.77;13.80;;;4.40;99.90;;;;;;6105048;23;20509;-87
2022/03/22 06:13:42;;;;;;;21.17;12.52;;;4.30;99.90;;;;;;6111624;23;20679;-87
2022/03/22 06:16:12;;;;;;;23.52;14.50;;;4.10;99.90;;;;;;6110302;23;20211;-87
2022/03/22 06:19:01;;;;;;;19.85;13.30;;;4.10;99.90;;;;;;6108315;23;20192;-87
2022/03/22 06:21:29;;;;;;;24.13;13.90;;;4.30;99.90;;;;;;6108507;23;20195;-87
2022/03/22 06:24:12;;;;;;;24.13;14.57;;;4.30;99.90;;;;;;6114430;23;20185;-87
2022/03/22 06:26:42;;;;;;;22.60;13.73;;;4.40;99.90;;;;;;6099801;23;20648;-87
2022/03/22 06:33:36;;;;;;;;;;;;;;;;;;;;;
2022/03/22 07:16:53;;;;;;;23.55;15.02;;;6.20;95.30;;;;;;6106345;23;20219;-88
2022/03/22 07:30:12;;;;;;;30.25;15.98;;;6.70;94.30;;;;;;6017127;23;20183;-86
2022/03/22 07:33:05;;;;;;;27.67;15.52;;;6.90;94.10;;;;;;6105390;23;20193;-85
2022/03/22 07:35:36;;;;;;;26.33;16.08;;;6.90;93.80;;;;;;6106435;23;20185;-86
2022/03/22 07:38:16;;;;;;;25.95;15.10;;;7.00;93.70;;;;;;6104536;23;20211;-87
2022/03/22 07:40:44;;;;;;;23.45;15.80;;;7.20;94.00;;;;;;6106683;23;20177;-86
2022/03/22 07:43:13;;;;;;;25.08;15.32;;;7.30;93.30;;;;;;6118451;23;20196;-86
2022/03/22 07:45:47;;;;;;;23.40;16.50;;;7.40;93.20;;;;;;6117836;23;20233;-86
2022/03/22 07:48:20;;;;;;;26.03;17.70;;;7.50;93.00;;;;;;6118210;23;20180;-85
2022/03/22 07:53:28;;;;;;;24.80;16.80;;;7.60;93.10;;;;;;6076725;23;20187;-87
2022/03/22 07:55:55;;;;;;;26.10;17.10;;;7.70;93.10;;;;;;6122488;23;20203;-87
2022/03/22 07:58:25;;;;;;;30.70;17.77;;;7.90;92.90;;;;;;6124974;23;20193;-88
2022/03/22 08:00:53;;;;;;;23.17;17.03;;;8.00;92.60;;;;;;6118451;23;20180;-87
2022/03/22 08:03:42;;;;;;;25.45;18.02;;;8.10;92.60;;;;;;6107911;23;20476;-87
2022/03/22 08:06:42;;;;;;;30.38;17.10;;;8.30;92.20;;;;;;6113801;23;20204;-87
2022/03/22 08:09:09;;;;;;;27.63;18.20;;;8.50;92.00;;;;;;6115513;23;20220;-87
2022/03/22 08:11:36;;;;;;;33.58;17.85;;;8.70;91.70;;;;;;6107503;23;20409;-87
2022/03/22 08:14:05;;;;;;;28.80;18.53;;;8.80;91.30;;;;;;6105878;23;20197;-85
2022/03/22 08:16:36;;;;;;;23.73;17.17;;;8.70;90.90;;;;;;6103634;23;20457;-86
2022/03/22 08:19:06;;;;;;;23.77;17.20;;;8.80;90.80;;;;;;6104860;23;20372;-87
2022/03/22 08:21:42;;;;;;;26.42;18.15;;;8.80;90.80;;;;;;6108899;23;20792;-88
2022/03/22 08:24:09;;;;;;;24.93;17.47;;;8.90;90.60;;;;;;6108121;23;20184;-87
2022/03/22 08:26:39;;;;;;;28.27;17.60;;;8.90;90.20;;;;;;6115453;23;20434;-86
2022/03/22 08:29:19;;;;;;;29.47;17.37;;;9.00;90.10;;;;;;6115527;23;20426;-87
2022/03/22 08:31:52;;;;;;;23.20;16.00;;;9.20;89.70;;;;;;6115235;23;20460;-86
2022/03/22 08:34:23;;;;;;;24.40;17.77;;;9.30;89.00;;;;;;6107476;23;20448;-88
2022/03/22 08:36:50;;;;;;;26.03;17.93;;;9.40;88.60;;;;;;6106927;23;20444;-87
2022/03/22 08:39:17;;;;;;;25.37;16.70;;;9.40;87.30;;;;;;6105831;23;20741;-86
2022/03/22 08:41:47;;;;;;;24.77;16.87;;;9.50;87.20;;;;;;6106835;23;20428;-86
2022/03/22 08:44:14;;;;;;;23.23;16.33;;;9.60;87.00;;;;;;6110247;23;20413;-88
2022/03/22 08:46:41;;;;;;;28.50;16.93;;;9.70;86.30;;;;;;6112201;23;20428;-87
2022/03/22 08:49:08;;;;;;;25.90;15.40;;;9.70;86.20;;;;;;6111814;23;20413;-87
2022/03/22 08:51:39;;;;;;;23.63;16.27;;;9.90;86.40;;;;;;6110903;23;20413;-87
2022/03/22 08:54:07;;;;;;;30.43;16.67;;;10.10;84.30;;;;;;6111023;23;20465;-88
2022/03/22 08:56:34;;;;;;;23.23;16.83;;;10.00;83.70;;;;;;6108177;23;20762;-87
2022/03/22 09:03:02;;;;;;;27.37;16.70;;;10.10;83.10;;;;;;5980838;23;20920;-86
2022/03/22 09:08:22;;;;;;;23.97;16.50;;;10.10;83.70;;;;;;6107265;23;20369;-87
2022/03/22 09:10:52;;;;;;;29.90;17.33;;;10.30;83.80;;;;;;6104552;23;20420;-87
2022/03/22 09:13:22;;;;;;;21.67;15.67;;;10.40;83.00;;;;;;6109576;23;20436;-88
2022/03/22 09:15:59;;;;;;;24.37;15.20;;;10.60;82.50;;;;;;6120325;23;20399;-87
2022/03/22 09:18:30;;;;;;;25.27;16.50;;;10.80;82.30;;;;;;6118232;23;20404;-88
2022/03/22 09:21:10;;;;;;;22.27;17.30;;;11.00;80.50;;;;;;6109926;23;20804;-87
2022/03/22 09:23:45;;;;;;;27.07;16.60;;;11.00;79.40;;;;;;6116415;23;20421;-88
2022/03/22 09:29:01;;;;;;;24.73;16.27;;;11.30;78.40;;;;;;6115366;23;20424;-86
2022/03/22 09:31:28;;;;;;;22.70;16.93;;;11.40;78.20;;;;;;6107323;23;20417;-87
2022/03/22 09:33:57;;;;;;;23.73;16.00;;;11.40;78.40;;;;;;6111694;23;20508;-88
2022/03/22 09:36:27;;;;;;;22.20;16.30;;;11.50;78.80;;;;;;6114573;23;20508;-87
2022/03/22 09:38:56;;;;;;;26.03;15.37;;;11.40;78.60;;;;;;6108444;23;20436;-88
2022/03/22 09:41:26;;;;;;;25.27;17.77;;;11.50;78.80;;;;;;6107839;23;20413;-87
2022/03/22 09:44:06;;;;;;;23.70;16.47;;;11.60;78.70;;;;;;6106851;23;20424;-87
2022/03/22 09:46:37;;;;;;;21.07;13.33;;;11.70;78.50;;;;;;6106595;23;20484;-87
2022/03/22 09:49:10;;;;;;;21.40;14.90;;;11.80;77.70;;;;;;6104055;23;20417;-87
2022/03/22 09:51:47;;;;;;;23.33;16.30;;;11.70;78.30;;;;;;6106661;23;20792;-87
2022/03/22 09:54:18;;;;;;;30.40;17.17;;;11.80;78.70;;;;;;6107591;23;20906;-88
2022/03/22 09:56:55;;;;;;;23.57;16.53;;;11.80;78.40;;;;;;6107001;23;20447;-88
2022/03/22 09:59:22;;;;;;;26.97;18.10;;;11.80;78.30;;;;;;6109874;23;20375;-87
2022/03/22 10:01:53;;;;;;;21.40;15.80;;;12.00;78.10;;;;;;6115771;23;20554;-87
2022/03/22 10:04:21;;;;;;;22.87;16.27;;;12.00;78.30;;;;;;6109810;23;20443;-87
2022/03/22 10:06:54;;;;;;;26.70;17.30;;;12.10;78.30;;;;;;6110917;23;20465;-87
2022/03/22 10:09:31;;;;;;;26.50;15.80;;;12.20;77.90;;;;;;6112656;23;20472;-87
2022/03/22 10:12:03;;;;;;;31.23;18.10;;;12.20;77.30;;;;;;6110692;23;20381;-89
2022/03/22 10:14:35;;;;;;;24.40;16.77;;;12.40;77.40;;;;;;6111970;23;20425;-87
2022/03/22 10:17:10;;;;;;;29.70;18.60;;;12.40;75.90;;;;;;6106411;23;20492;-86
2022/03/22 10:19:43;;;;;;;23.30;16.03;;;12.50;75.40;;;;;;6109135;23;20418;-87
2022/03/22 10:22:11;;;;;;;23.23;16.20;;;12.60;74.60;;;;;;6107286;23;20381;-88
2022/03/22 10:24:50;;;;;;;22.40;15.97;;;12.70;74.50;;;;;;6111335;23;20393;-88
2022/03/22 10:27:35;;;;;;;21.80;16.40;;;12.70;73.00;;;;;;6113025;23;20415;-87
2022/03/22 10:30:09;;;;;;;26.17;17.40;;;12.80;72.60;;;;;;6106242;23;20420;-88
2022/03/22 10:32:40;;;;;;;23.23;17.07;;;13.00;72.50;;;;;;6106757;23;20370;-88
2022/03/22 10:35:23;;;;;;;25.17;15.90;;;13.00;70.70;;;;;;6114216;23;20419;-88
2022/03/22 10:37:52;;;;;;;25.20;15.23;;;13.00;70.00;;;;;;6114172;23;20467;-88
2022/03/22 10:40:51;;;;;;;28.93;18.70;;;13.20;69.20;;;;;;6107692;23;20690;-89
2022/03/22 10:43:22;;;;;;;22.50;16.07;;;13.20;69.80;;;;;;6110668;23;20421;-88
2022/03/22 10:46:00;;;;;;;29.00;17.77;;;13.40;69.00;;;;;;6110524;23;20455;-88
2022/03/22 10:48:32;;;;;;;25.67;18.30;;;13.40;69.30;;;;;;6108389;23;20476;-86
2022/03/22 10:51:00;;;;;;;22.30;17.90;;;13.50;69.50;;;;;;6107638;23;20376;-87
2022/03/22 10:53:29;;;;;;;22.60;17.60;;;13.60;69.70;;;;;;6115651;23;20411;-86
2022/03/22 10:55:59;;;;;;;46.67;23.73;;;13.70;69.10;;;;;;6121779;23;20424;-87
2022/03/22 10:58:28;;;;;;;25.67;16.60;;;13.70;68.20;;;;;;6118785;23;20419;-87
2022/03/22 11:00:57;;;;;;;21.70;15.40;;;13.80;67.50;;;;;;6117448;23;20391;-87
2022/03/22 11:03:32;;;;;;;88.37;29.43;;;13.90;67.30;;;;;;6115752;23;20773;-87
2022/03/22 11:06:14;;;;;;;128.77;27.70;;;13.70;67.00;;;;;;6113947;23;20403;-87
2022/03/22 11:08:43;;;;;;;23.93;16.93;;;13.80;67.00;;;;;;6111839;23;20379;-86
2022/03/22 11:11:13;;;;;;;26.57;17.47;;;14.10;65.20;;;;;;6111511;23;20512;-88
2022/03/22 11:13:41;;;;;;;25.27;17.63;;;14.10;65.20;;;;;;6110956;23;20374;-87
2022/03/22 11:16:15;;;;;;;25.10;17.57;;;14.30;65.00;;;;;;6110289;23;20515;-87
2022/03/22 11:18:46;;;;;;;24.20;17.83;;;14.30;64.20;;;;;;6114295;23;20467;-87
2022/03/22 11:21:19;;;;;;;21.30;16.70;;;14.30;62.40;;;;;;6117706;23;20461;-87
2022/03/22 11:23:51;;;;;;;24.53;18.00;;;14.40;62.20;;;;;;6112026;23;20505;-87
2022/03/22 11:26:23;;;;;;;30.93;17.03;;;14.50;61.30;;;;;;6113204;23;20499;-86
2022/03/22 11:28:51;;;;;;;23.40;17.80;;;14.50;61.30;;;;;;6122415;23;20363;-87
2022/03/22 11:31:21;;;;;;;23.53;17.13;;;14.60;61.20;;;;;;6122077;23;20384;-87
2022/03/22 11:36:44;;;;;;;24.87;17.20;;;14.70;60.10;;;;;;6119641;23;20424;-89
2022/03/22 11:39:16;;;;;;;22.77;16.93;;;14.80;59.80;;;;;;6117236;23;20407;-85
2022/03/22 11:44:38;;;;;;;26.10;17.90;;;14.80;59.30;;;;;;6112537;23;20973;-88
2022/03/22 11:47:08;;;;;;;21.10;14.57;;;14.90;58.40;;;;;;6112654;23;20441;-87
2022/03/22 11:49:50;;;;;;;22.43;16.17;;;14.90;57.80;;;;;;6112899;23;20376;-88
2022/03/22 11:52:18;;;;;;;20.17;16.20;;;14.90;57.80;;;;;;6113875;23;20409;-88
2022/03/22 11:55:02;;;;;;;22.70;17.17;;;14.90;57.70;;;;;;6111816;23;20461;-88
2022/03/22 11:57:43;;;;;;;20.53;15.17;;;15.00;57.70;;;;;;6109447;23;20786;-87
2022/03/22 12:00:12;;;;;;;20.37;15.27;;;15.00;56.60;;;;;;6108211;23;20372;-87
2022/03/22 12:02:51;;;;;;;32.73;17.73;;;14.90;56.70;;;;;;6108202;23;20471;-88
2022/03/22 12:05:20;;;;;;;34.83;17.27;;;14.90;56.50;;;;;;6108221;23;20392;-88
2022/03/22 12:07:51;;;;;;;18.30;14.40;;;15.10;56.20;;;;;;6108341;23;20421;-87
2022/03/22 12:10:20;;;;;;;22.90;15.90;;;15.10;55.50;;;;;;6109064;23;20406;-87
2022/03/22 12:12:53;;;;;;;21.10;16.57;;;15.10;54.60;;;;;;6109258;23;20386;-86
2022/03/22 12:15:23;;;;;;;22.97;16.50;;;15.00;55.20;;;;;;6111059;23;20403;-86
2022/03/22 12:17:54;;;;;;;20.60;16.13;;;15.10;54.70;;;;;;6113249;23;20526;-87
2022/03/22 12:20:23;;;;;;;23.37;15.03;;;15.30;53.70;;;;;;6114060;23;20422;-86
2022/03/22 12:22:51;;;;;;;24.60;17.20;;;15.30;53.30;;;;;;6118913;23;20395;-86
2022/03/22 12:25:27;;;;;;;21.17;15.73;;;15.20;53.30;;;;;;6123105;23;20388;-86
2022/03/22 12:28:00;;;;;;;21.20;15.83;;;15.30;53.30;;;;;;6117975;23;20381;-86
2022/03/22 12:30:29;;;;;;;21.50;15.47;;;15.30;53.40;;;;;;6121511;23;20370;-86
2022/03/22 12:33:00;;;;;;;21.93;15.60;;;15.40;52.90;;;;;;6118275;23;20440;-86
2022/03/22 12:35:33;;;;;;;22.80;15.97;;;15.40;53.10;;;;;;6119947;23;20391;-87
2022/03/22 12:38:00;;;;;;;25.00;16.50;;;15.50;53.20;;;;;;6113112;23;20423;-86
2022/03/22 12:40:29;;;;;;;26.07;16.30;;;15.50;52.90;;;;;;6112037;23;20406;-86
2022/03/22 12:42:59;;;;;;;22.70;16.73;;;15.60;52.70;;;;;;6114679;23;20390;-87
2022/03/22 12:45:29;;;;;;;29.87;13.80;;;15.60;52.70;;;;;;6117354;23;20435;-84
2022/03/22 12:47:57;;;;;;;20.70;15.80;;;15.60;52.30;;;;;;6122397;23;20376;-86
2022/03/22 12:50:27;;;;;;;23.10;16.00;;;15.60;52.10;;;;;;6121646;23;20505;-87
2022/03/22 12:52:54;;;;;;;21.23;13.80;;;15.70;52.20;;;;;;6115511;23;20372;-87
2022/03/22 12:55:27;;;;;;;23.53;18.13;;;15.70;52.20;;;;;;6114557;23;20391;-85
2022/03/22 12:57:56;;;;;;;20.00;15.70;;;15.80;52.00;;;;;;6113805;23;20412;-86
2022/03/22 13:00:31;;;;;;;21.17;15.73;;;15.90;52.20;;;;;;6120563;23;20408;-87
2022/03/22 13:03:05;;;;;;;21.90;13.67;;;16.00;52.70;;;;;;6115365;23;20394;-85
2022/03/22 13:05:32;;;;;;;23.53;17.63;;;15.90;52.90;;;;;;6117859;23;20383;-87
2022/03/22 13:07:59;;;;;;;19.77;13.67;;;15.90;53.40;;;;;;6115607;23;20424;-86
2022/03/22 13:13:18;;;;;;;23.80;17.93;;;16.00;52.60;;;;;;6122576;23;20384;-86
2022/03/22 13:15:51;;;;;;;20.20;15.97;;;15.80;52.50;;;;;;6113572;23;20447;-89
2022/03/22 13:18:19;;;;;;;22.53;17.67;;;15.80;52.60;;;;;;6112580;23;20436;-87
2022/03/22 13:20:46;;;;;;;21.87;15.97;;;15.90;52.50;;;;;;6112898;23;20418;-88
2022/03/22 13:23:22;;;;;;;25.60;17.30;;;16.00;51.60;;;;;;6116560;23;20395;-88
2022/03/22 13:26:11;;;;;;;22.50;16.13;;;16.10;51.50;;;;;;6120146;23;20422;-88
2022/03/22 13:28:38;;;;;;;22.07;16.80;;;16.10;51.90;;;;;;6120742;23;20381;-87
2022/03/22 13:31:06;;;;;;;23.50;15.90;;;16.20;51.40;;;;;;6120864;23;20385;-88
2022/03/22 13:33:35;;;;;;;22.90;16.80;;;16.20;51.00;;;;;;6115994;23;20417;-89
2022/03/22 13:36:06;;;;;;;25.30;18.27;;;16.20;50.80;;;;;;6112978;23;20415;-86
2022/03/22 13:38:37;;;;;;;23.80;16.73;;;16.30;50.40;;;;;;6111110;23;21021;-87
2022/03/22 13:41:06;;;;;;;24.13;16.37;;;16.30;50.70;;;;;;6112428;23;20855;-88
2022/03/22 13:43:44;;;;;;;24.47;15.60;;;16.30;50.40;;;;;;6110140;23;20859;-85
2022/03/22 13:46:13;;;;;;;26.80;15.40;;;16.40;50.40;;;;;;6111052;23;20506;-87
2022/03/22 13:48:45;;;;;;;22.70;16.20;;;16.50;49.50;;;;;;6110325;23;20401;-87
2022/03/22 13:51:18;;;;;;;23.93;15.07;;;16.50;49.50;;;;;;6114320;23;20847;-87
2022/03/22 13:53:48;;;;;;;22.97;16.33;;;16.50;49.40;;;;;;6120273;23;20356;-87
2022/03/22 13:56:16;;;;;;;18.63;14.60;;;16.60;49.40;;;;;;6122856;23;20413;-88
2022/03/22 13:58:46;;;;;;;22.03;15.70;;;16.70;49.20;;;;;;6117305;23;20474;-88
2022/03/22 14:01:15;;;;;;;20.77;15.80;;;16.80;49.00;;;;;;6116690;23;20477;-88
2022/03/22 14:03:52;;;;;;;20.00;16.17;;;16.80;48.60;;;;;;6115891;23;20411;-87
2022/03/22 14:06:26;;;;;;;19.47;14.43;;;16.90;48.10;;;;;;6111994;23;20428;-88
2022/03/22 14:08:56;;;;;;;22.67;16.80;;;17.00;46.90;;;;;;6112805;23;20448;-87
2022/03/22 14:11:26;;;;;;;23.43;16.20;;;17.00;47.60;;;;;;6113076;23;20402;-88
2022/03/22 14:13:56;;;;;;;19.70;16.17;;;17.10;46.90;;;;;;6114990;23;20405;-87
2022/03/22 14:16:33;;;;;;;16.27;13.57;;;17.00;46.70;;;;;;6111162;23;20445;-88
2022/03/22 14:19:03;;;;;;;20.33;15.03;;;17.00;46.20;;;;;;6109270;23;20499;-87
2022/03/22 14:21:34;;;;;;;20.97;14.90;;;17.00;45.70;;;;;;6113630;23;20427;-88
2022/03/22 14:24:02;;;;;;;22.77;15.10;;;17.20;46.90;;;;;;6114918;23;20411;-87
2022/03/22 14:26:30;;;;;;;19.10;14.23;;;17.20;47.30;;;;;;6107285;23;20483;-88
2022/03/22 14:29:00;;;;;;;21.77;15.70;;;17.20;46.90;;;;;;6108036;23;20462;-88
2022/03/22 14:31:32;;;;;;;23.60;15.43;;;17.20;47.30;;;;;;6108728;23;20384;-87
2022/03/22 14:33:59;;;;;;;23.70;16.50;;;17.20;47.80;;;;;;6109017;23;20481;-87
2022/03/22 14:36:26;;;;;;;21.67;16.10;;;17.10;48.00;;;;;;6115354;23;20411;-87
2022/03/22 14:38:55;;;;;;;26.93;17.57;;;17.20;47.60;;;;;;6117209;23;20407;-88
2022/03/22 14:41:26;;;;;;;20.63;15.60;;;17.30;47.40;;;;;;6113574;23;20383;-89
2022/03/22 14:43:58;;;;;;;21.27;16.00;;;17.40;48.10;;;;;;6113079;23;20394;-88
2022/03/22 14:46:31;;;;;;;21.73;16.63;;;17.50;48.10;;;;;;6112276;23;20459;-88
2022/03/22 14:49:02;;;;;;;24.30;16.03;;;17.50;48.20;;;;;;6112777;23;20356;-86
2022/03/22 14:54:16;;;;;;;25.03;16.27;;;17.50;48.70;;;;;;6120618;23;20372;-87
2022/03/22 14:59:27;;;;;;;21.40;16.60;;;17.60;48.40;;;;;;6112781;23;20479;-87
2022/03/22 15:01:56;;;;;;;19.67;15.03;;;17.60;48.20;;;;;;6114004;23;20415;-87
2022/03/22 15:04:25;;;;;;;18.73;15.70;;;17.80;48.50;;;;;;6116583;23;20421;-88
2022/03/22 15:06:55;;;;;;;19.63;16.50;;;17.90;48.10;;;;;;6114302;23;20411;-87
2022/03/22 15:09:22;;;;;;;18.13;15.13;;;17.90;48.20;;;;;;6115307;23;20359;-87
2022/03/22 15:11:50;;;;;;;24.03;15.80;;;17.80;47.70;;;;;;6115129;23;20423;-88
2022/03/22 15:14:17;;;;;;;19.63;15.73;;;17.80;47.70;;;;;;6123244;23;20420;-86
2022/03/22 15:16:48;;;;;;;26.50;16.97;;;18.00;47.80;;;;;;6123232;23;20486;-86
2022/03/22 15:19:18;;;;;;;20.77;16.40;;;18.10;47.80;;;;;;6113535;23;20395;-89
2022/03/22 15:21:47;;;;;;;21.13;16.27;;;18.00;47.70;;;;;;6116062;23;20395;-86
2022/03/22 15:24:17;;;;;;;22.63;16.30;;;18.00;48.20;;;;;;6121515;23;20413;-86
2022/03/22 15:26:44;;;;;;;20.80;17.10;;;18.00;48.00;;;;;;6123131;23;20435;-88
2022/03/22 15:29:11;;;;;;;18.60;13.43;;;18.10;47.80;;;;;;6122686;23;20416;-87
2022/03/22 15:31:39;;;;;;;20.03;15.73;;;18.10;47.50;;;;;;6121815;23;20428;-87
2022/03/22 15:34:06;;;;;;;22.17;17.83;;;18.10;48.10;;;;;;6117600;23;20427;-88
2022/03/22 15:36:34;;;;;;;19.37;15.90;;;18.20;48.20;;;;;;6110606;23;20438;-88
2022/03/22 15:39:02;;;;;;;19.70;16.07;;;18.20;48.10;;;;;;6113006;23;20423;-88
2022/03/22 15:41:34;;;;;;;19.03;14.53;;;18.10;48.00;;;;;;6121172;23;20372;-88
2022/03/22 15:44:10;;;;;;;23.30;17.10;;;18.20;48.30;;;;;;6119281;23;20349;-88
2022/03/22 15:46:42;;;;;;;20.10;16.00;;;18.00;48.50;;;;;;6115464;23;20492;-86
2022/03/22 15:49:11;;;;;;;19.73;15.37;;;18.20;48.90;;;;;;6117429;23;20470;-87
2022/03/22 15:51:44;;;;;;;20.60;16.50;;;18.30;48.30;;;;;;6111608;23;20391;-87
2022/03/22 15:54:13;;;;;;;22.83;16.80;;;18.30;48.30;;;;;;6114736;23;20470;-86
2022/03/22 15:56:44;;;;;;;20.30;15.87;;;18.30;48.50;;;;;;6114425;23;20434;-86
2022/03/22 15:59:14;;;;;;;18.77;15.00;;;18.40;48.10;;;;;;6111746;23;20488;-87
2022/03/22 16:01:42;;;;;;;24.23;17.67;;;18.50;48.20;;;;;;6110448;23;20432;-87
2022/03/22 16:04:11;;;;;;;25.60;15.97;;;18.60;48.50;;;;;;6114497;23;20440;-87
2022/03/22 16:06:40;;;;;;;21.73;14.50;;;18.40;48.40;;;;;;6113281;23;20768;-87
2022/03/22 16:09:13;;;;;;;21.53;16.10;;;18.00;48.90;;;;;;6113096;23;20383;-88
2022/03/22 16:11:50;;;;;;;24.47;17.30;;;17.90;49.90;;;;;;6114812;23;20388;-88
2022/03/22 16:14:19;;;;;;;20.67;16.10;;;17.70;49.60;;;;;;6113652;23;20371;-86
2022/03/22 16:16:54;;;;;;;21.97;16.13;;;17.60;49.80;;;;;;6113762;23;20461;-87
2022/03/22 16:19:27;;;;;;;21.63;15.70;;;17.40;50.30;;;;;;6116760;23;20436;-88
2022/03/22 16:21:55;;;;;;;24.87;17.40;;;17.30;50.50;;;;;;6117110;23;20383;-88
2022/03/22 16:24:22;;;;;;;19.63;15.53;;;17.40;50.60;;;;;;6120533;23;20391;-87
2022/03/22 16:29:19;;;;;;;20.90;16.43;;;17.40;50.70;;;;;;6087501;23;20409;-86
2022/03/22 16:37:35;;;;;;;22.70;15.63;;;17.20;52.40;;;;;;6082653;23;20545;-86
2022/03/22 16:40:02;;;;;;;19.80;15.33;;;17.00;52.70;;;;;;6085900;23;20477;-87
2022/03/22 16:42:30;;;;;;;22.57;17.57;;;17.00;52.80;;;;;;6084172;23;20400;-88
2022/03/22 16:44:57;;;;;;;21.00;16.60;;;16.90;53.00;;;;;;6083805;23;20426;-89
2022/03/22 16:50:26;;;;;;;21.53;17.53;;;17.00;53.50;;;;;;6078981;23;20389;-89
2022/03/22 16:53:05;;;;;;;25.83;18.00;;;17.00;53.80;;;;;;6078709;23;20384;-87
2022/03/22 16:55:37;;;;;;;24.40;17.00;;;17.00;53.90;;;;;;6076853;23;20473;-87
2022/03/22 16:58:16;;;;;;;22.13;17.13;;;16.90;54.10;;;;;;6076528;23;20422;-89
2022/03/22 17:00:56;;;;;;;21.80;17.07;;;16.90;54.10;;;;;;6076107;23;20431;-89
2022/03/22 17:10:49;;;;;;;21.70;15.20;;;16.70;54.40;;;;;;5991686;24;20372;-87
2022/03/22 17:16:18;;;;;;;20.53;16.20;;;16.50;54.80;;;;;;5986002;24;20383;-86
2022/03/22 17:19:23;;;;;;;23.80;17.20;;;16.50;54.90;;;;;;5991273;24;20818;-86
2022/03/22 17:22:08;;;;;;;23.13;16.37;;;16.40;55.20;;;;;;6066968;23;20380;-87
2022/03/22 17:24:59;;;;;;;24.07;17.83;;;16.40;55.50;;;;;;6078862;23;20425;-87
2022/03/22 17:27:56;;;;;;;22.57;17.07;;;16.40;55.20;;;;;;5989777;24;20448;-88
2022/03/22 17:31:00;;;;;;;23.30;17.70;;;16.30;55.90;;;;;;6001010;24;20419;-86
2022/03/22 17:34:03;;;;;;;24.93;16.80;;;16.10;56.50;;;;;;6082291;23;20424;-88
2022/03/22 17:36:37;;;;;;;20.60;15.33;;;16.10;56.20;;;;;;6084307;23;20429;-87
2022/03/22 17:39:22;;;;;;;20.67;15.83;;;16.10;56.10;;;;;;6080001;23;20424;-88
2022/03/22 17:41:55;;;;;;;22.97;16.50;;;16.10;56.80;;;;;;6080554;23;20410;-85
2022/03/22 17:44:31;;;;;;;25.20;17.33;;;16.00;57.00;;;;;;6089013;23;20685;-86
2022/03/22 17:47:19;;;;;;;20.80;16.67;;;15.90;57.30;;;;;;6085528;23;20374;-86
2022/03/22 17:49:48;;;;;;;20.60;16.67;;;15.90;57.50;;;;;;6080920;23;20484;-87
2022/03/22 17:52:24;;;;;;;23.80;16.33;;;15.90;57.70;;;;;;6089071;23;20392;-87
2022/03/22 17:54:51;;;;;;;26.87;16.60;;;15.80;57.80;;;;;;6079250;23;20398;-87
2022/03/22 17:57:28;;;;;;;23.27;17.17;;;15.80;58.00;;;;;;6075105;23;20416;-87
2022/03/22 18:02:52;;;;;;;24.03;17.20;;;15.50;59.10;;;;;;6064194;23;20409;-87
2022/03/22 18:05:22;;;;;;;24.40;17.77;;;15.50;59.10;;;;;;6080906;23;20405;-87
2022/03/22 18:10:42;;;;;;;25.60;18.60;;;15.40;59.70;;;;;;6071801;23;20877;-88
2022/03/22 18:13:27;;;;;;;26.77;18.80;;;15.40;60.10;;;;;;6078548;23;20373;-88
2022/03/22 18:16:05;;;;;;;26.17;18.37;;;15.30;60.30;;;;;;6078139;23;20484;-87
2022/03/22 18:18:51;;;;;;;24.93;18.80;;;15.20;60.90;;;;;;6078652;23;20384;-87
2022/03/22 18:21:33;;;;;;;30.83;21.97;;;15.20;61.10;;;;;;6089731;23;20412;-88
2022/03/22 18:24:06;;;;;;;29.80;22.10;;;15.10;61.90;;;;;;6086812;23;20369;-87
2022/03/22 18:34:29;;;;;;;19.30;14.77;;;14.80;63.80;;;;;;5937684;24;20442;-88
2022/03/22 18:50:48;;;;;;;18.37;14.30;;;13.90;66.60;;;;;;5955444;24;20391;-88
2022/03/22 19:04:44;;;;;;;21.30;15.00;;;13.50;67.80;;;;;;6014135;23;20420;-87
2022/03/22 19:07:36;;;;;;;21.00;14.73;;;13.50;68.30;;;;;;6087521;23;20437;-87
2022/03/22 19:10:13;;;;;;;19.37;13.73;;;13.40;68.60;;;;;;6054813;23;20422;-88
2022/03/22 19:12:40;;;;;;;22.43;14.23;;;13.30;69.00;;;;;;6082251;23;20425;-88
2022/03/22 19:15:14;;;;;;;20.63;14.77;;;13.20;69.10;;;;;;6083445;23;20805;-88
2022/03/22 19:18:39;;;;;;;;;;;;;;;;;;;;;
2022/03/22 19:25:27;;;;;;;20.47;15.67;;;12.90;70.30;;;;;;5945594;24;20402;-87
2022/03/22 19:38:00;;;;;;;21.70;14.27;;;12.40;72.80;;;;;;6069052;23;20460;-87
2022/03/22 19:56:15;;;;;;;21.10;14.60;;;12.10;74.30;;;;;;6080920;23;20424;-85
2022/03/22 19:59:52;;;;;;;;;;;;;;;;;;;;;
2022/03/22 20:32:55;;;;;;;21.60;15.13;;;11.10;78.70;;;;;;5795136;24;20482;-88
2022/03/22 20:36:10;;;;;;;27.30;16.90;;;11.10;78.50;;;;;;5806232;24;20464;-88
2022/03/22 21:23:09;;;;;;;23.20;14.67;;;10.00;84.80;;;;;;5788762;24;20166;-86
2022/03/22 21:59:02;;;;;;;21.07;14.73;;;9.50;89.30;;;;;;6029086;23;20569;-86
2022/03/22 22:01:41;;;;;;;21.23;15.33;;;9.50;89.40;;;;;;6048155;23;20532;-86
2022/03/22 22:05:09;;;;;;;20.30;14.87;;;9.60;89.10;;;;;;6067419;23;20425;-86
2022/03/22 22:07:50;;;;;;;20.13;14.43;;;9.60;88.90;;;;;;6075156;23;20433;-87